Terminal Aerodrome Forecast
Issued by NWS Wilmington, NC

Home | Current Version | Previous Version | Text Only | Print | Product List | Glossary On
Versions: 1 2 3 4 5 6 7 8 9 10 11 12 13 14 15 16 17 18
579
FTUS42 KILM 080547 CCC
TAFILM
TAF COR
KILM 080547Z 0806/0906 31013G20KT P6SM BKN150
     FM080900 30010G17KT P6SM BKN250
     FM081300 28008KT P6SM SKC
     FM081900 22013G19KT P6SM SCT120 OVC250
     FM082300 23013G20KT P6SM BKN100
      TEMPO 0823/0902 -SHRASN BKN040 OVC080
     FM090200 26010G15KT P6SM BKN060=

USA.gov is the U.S. government's official web portal to all federal, state and local government web resources and services.